createdAt,value
2017-08-24T00:02:27.211Z,9.40
2017-08-24T00:04:55.530Z,8.67
2017-08-24T00:07:23.838Z,10.30
2017-08-24T00:09:52.178Z,10.87
2017-08-24T00:12:20.472Z,9.40
2017-08-24T00:14:48.804Z,12.43
2017-08-24T00:17:17.122Z,9.73
2017-08-24T00:19:45.456Z,8.60
2017-08-24T00:22:13.761Z,13.63
2017-08-24T00:24:42.094Z,8.73
2017-08-24T00:27:10.414Z,11.43
2017-08-24T00:29:38.711Z,9.50
2017-08-24T00:32:07.017Z,9.83
2017-08-24T00:34:35.321Z,11.00
2017-08-24T00:37:03.632Z,13.63
2017-08-24T00:39:31.940Z,8.53
2017-08-24T00:42:00.968Z,10.83
2017-08-24T00:44:29.290Z,13.03
2017-08-24T00:46:57.595Z,9.33
2017-08-24T00:49:25.988Z,11.07
2017-08-24T00:51:54.302Z,13.80
2017-08-24T00:54:22.613Z,12.80
2017-08-24T00:56:50.931Z,9.23
2017-08-24T00:59:19.411Z,10.73
2017-08-24T01:01:47.709Z,11.90
2017-08-24T01:04:16.037Z,11.07
2017-08-24T01:06:44.359Z,9.43
2017-08-24T01:09:12.669Z,9.77
2017-08-24T01:11:40.992Z,12.93
2017-08-24T01:14:09.293Z,9.67
2017-08-24T01:16:37.593Z,9.47
2017-08-24T01:19:05.895Z,10.33
2017-08-24T01:21:34.202Z,9.23
2017-08-24T01:24:02.510Z,10.87
2017-08-24T01:26:30.826Z,10.30
2017-08-24T01:28:59.142Z,9.80
2017-08-24T01:31:27.483Z,9.60
2017-08-24T01:33:55.793Z,9.97
2017-08-24T01:36:24.103Z,15.30
2017-08-24T01:38:52.418Z,13.83
2017-08-24T01:41:20.747Z,8.77
2017-08-24T01:43:49.066Z,9.90
2017-08-24T01:46:24.202Z,9.23
2017-08-24T01:48:52.560Z,8.07
2017-08-24T01:51:20.882Z,8.80
2017-08-24T01:53:49.215Z,11.87
2017-08-24T01:56:17.526Z,11.80
2017-08-24T01:58:45.892Z,8.43
2017-08-24T02:01:14.189Z,9.10
2017-08-24T02:03:42.531Z,10.80
2017-08-24T02:06:10.855Z,9.87
2017-08-24T02:08:39.170Z,13.77
2017-08-24T02:11:07.481Z,13.30
2017-08-24T02:13:35.777Z,9.63
2017-08-24T02:16:04.080Z,7.90
2017-08-24T02:18:32.446Z,10.00
2017-08-24T02:21:00.774Z,10.13
2017-08-24T02:23:29.081Z,12.57
2017-08-24T02:25:57.377Z,8.00
2017-08-24T02:28:25.685Z,13.90
2017-08-24T02:30:53.982Z,10.13
2017-08-24T02:33:22.301Z,9.47
2017-08-24T02:35:58.433Z,10.63
2017-08-24T02:38:26.749Z,9.07
2017-08-24T02:40:55.059Z,11.40
2017-08-24T02:43:23.376Z,10.00
2017-08-24T02:45:51.784Z,11.40
2017-08-24T02:48:20.113Z,13.60
2017-08-24T02:50:48.429Z,10.20
2017-08-24T02:53:16.741Z,11.30
2017-08-24T02:55:45.069Z,13.40
2017-08-24T02:58:13.380Z,10.97
2017-08-24T03:00:41.703Z,15.20
2017-08-24T03:03:10.033Z,10.37
2017-08-24T03:05:38.361Z,9.20
2017-08-24T03:08:06.677Z,9.23
2017-08-24T03:10:35.012Z,12.60
2017-08-24T03:13:03.344Z,10.73
2017-08-24T03:15:31.654Z,12.13
2017-08-24T03:17:59.965Z,12.73
2017-08-24T03:20:28.272Z,12.50
2017-08-24T03:22:56.600Z,13.00
2017-08-24T03:25:24.925Z,14.50
2017-08-24T03:27:53.238Z,12.53
2017-08-24T03:30:21.581Z,11.53
2017-08-24T03:32:49.936Z,11.33
2017-08-24T03:35:18.259Z,11.43
2017-08-24T03:37:46.591Z,15.37
2017-08-24T03:40:14.916Z,13.87
2017-08-24T03:42:43.236Z,13.37
2017-08-24T03:45:11.571Z,16.87
2017-08-24T03:47:39.898Z,15.20
2017-08-24T03:50:08.218Z,17.50
2017-08-24T03:52:36.538Z,20.37
2017-08-24T03:55:04.870Z,11.73
2017-08-24T03:57:33.179Z,17.80
2017-08-24T04:00:01.507Z,12.80
2017-08-24T04:02:29.836Z,19.33
2017-08-24T04:04:58.245Z,13.20
2017-08-24T04:07:26.582Z,16.40
2017-08-24T04:09:54.892Z,14.70
2017-08-24T04:12:23.222Z,11.37
2017-08-24T04:14:51.538Z,12.00
2017-08-24T04:17:19.879Z,12.63
2017-08-24T04:19:48.192Z,13.23
2017-08-24T04:22:16.544Z,12.43
2017-08-24T04:24:44.873Z,14.60
2017-08-24T04:27:13.235Z,11.17
2017-08-24T04:29:41.593Z,16.70
2017-08-24T04:32:09.935Z,15.33
2017-08-24T04:34:38.261Z,10.70
2017-08-24T04:37:06.586Z,10.50
2017-08-24T04:39:34.925Z,15.23
2017-08-24T04:42:03.233Z,12.63
2017-08-24T04:44:31.814Z,11.70
2017-08-24T04:47:00.134Z,10.73
2017-08-24T04:49:28.470Z,13.63
2017-08-24T04:51:56.810Z,15.03
2017-08-24T04:54:25.121Z,11.07
2017-08-24T04:56:53.445Z,12.30
2017-08-24T04:59:21.780Z,13.47
2017-08-24T05:01:50.102Z,10.13
2017-08-24T05:04:18.409Z,12.83
2017-08-24T05:06:46.759Z,11.10
2017-08-24T05:09:15.070Z,14.00
2017-08-24T05:11:43.379Z,13.57
2017-08-24T05:14:11.698Z,12.70
2017-08-24T05:16:40.362Z,11.87
2017-08-24T05:19:08.749Z,16.63
2017-08-24T05:21:37.066Z,19.87
2017-08-24T05:24:05.381Z,12.70
2017-08-24T05:26:33.717Z,11.00
2017-08-24T05:29:02.054Z,11.90
2017-08-24T05:31:30.365Z,10.37
2017-08-24T05:33:58.678Z,13.10
2017-08-24T05:36:27.013Z,11.57
2017-08-24T05:38:55.328Z,12.20
2017-08-24T05:41:23.641Z,10.30
2017-08-24T05:43:51.962Z,15.57
2017-08-24T05:46:20.285Z,12.17
2017-08-24T05:48:48.598Z,10.70
2017-08-24T05:51:16.930Z,11.40
2017-08-24T05:53:45.242Z,12.30
2017-08-24T05:56:13.555Z,12.70
2017-08-24T05:58:41.879Z,16.70
2017-08-24T06:01:11.098Z,13.73
2017-08-24T06:03:39.410Z,15.53
2017-08-24T06:06:07.746Z,19.43
2017-08-24T06:08:36.067Z,11.23
2017-08-24T06:11:04.385Z,12.10
2017-08-24T06:13:32.710Z,14.87
2017-08-24T06:16:01.025Z,13.60
2017-08-24T06:18:29.334Z,15.90
2017-08-24T06:20:57.659Z,15.63
2017-08-24T06:23:25.978Z,16.73
2017-08-24T06:25:54.304Z,21.23
2017-08-24T06:28:22.623Z,16.40
2017-08-24T06:30:50.938Z,11.50
2017-08-24T06:33:19.253Z,15.20
2017-08-24T06:35:47.595Z,20.00
2017-08-24T06:38:15.911Z,14.13
2017-08-24T06:40:44.227Z,11.23
2017-08-24T06:43:12.554Z,27.53
2017-08-24T06:45:40.864Z,16.80
2017-08-24T06:48:09.186Z,17.53
2017-08-24T06:50:37.492Z,19.27
2017-08-24T06:53:05.801Z,22.07
2017-08-24T06:55:34.110Z,17.30
2017-08-24T06:58:02.430Z,12.47
2017-08-24T07:00:30.738Z,10.53
2017-08-24T07:02:59.078Z,12.20
2017-08-24T07:05:27.387Z,20.77
2017-08-24T07:07:55.700Z,13.77
2017-08-24T07:10:24.023Z,15.47
2017-08-24T07:12:52.335Z,13.00
2017-08-24T07:15:20.661Z,16.73
2017-08-24T07:17:48.971Z,11.87
2017-08-24T07:20:17.285Z,14.67
2017-08-24T07:22:45.591Z,12.97
2017-08-24T07:25:13.938Z,13.43
2017-08-24T07:27:42.268Z,15.30
2017-08-24T07:30:10.598Z,14.07
2017-08-24T07:32:38.926Z,19.70
2017-08-24T07:35:07.253Z,13.97
2017-08-24T07:37:35.598Z,13.77
2017-08-24T07:40:03.906Z,12.90
2017-08-24T07:42:32.237Z,13.80
2017-08-24T07:45:00.581Z,16.80
2017-08-24T07:47:28.906Z,13.40
2017-08-24T07:49:57.223Z,15.23
2017-08-24T07:52:25.573Z,11.73
2017-08-24T07:54:53.891Z,21.43
2017-08-24T07:57:22.207Z,22.40
2017-08-24T07:59:50.559Z,14.03
2017-08-24T08:02:18.875Z,15.63
2017-08-24T08:04:47.185Z,15.83
2017-08-24T08:07:15.530Z,25.77
2017-08-24T08:09:43.848Z,22.17
2017-08-24T08:12:12.161Z,20.47
2017-08-24T08:14:40.509Z,23.67
2017-08-24T08:17:08.835Z,30.07
2017-08-24T08:19:37.150Z,20.83
2017-08-24T08:22:05.497Z,27.60
2017-08-24T08:24:33.808Z,30.17
2017-08-24T08:27:02.127Z,22.60
2017-08-24T08:29:30.469Z,22.83
2017-08-24T08:31:58.778Z,29.47
2017-08-24T08:34:27.086Z,20.93
2017-08-24T08:36:55.434Z,24.53
2017-08-24T08:39:23.742Z,27.20
2017-08-24T08:41:52.057Z,28.73
2017-08-24T08:44:20.409Z,19.77
2017-08-24T08:46:48.729Z,23.20
2017-08-24T08:49:17.040Z,21.20
2017-08-24T08:51:45.397Z,23.00
2017-08-24T08:54:13.709Z,21.60
2017-08-24T08:56:42.027Z,33.17
2017-08-24T08:59:10.366Z,23.13
2017-08-24T09:01:38.690Z,26.53
2017-08-24T09:04:07.001Z,25.43
2017-08-24T09:06:35.355Z,26.43
2017-08-24T09:09:03.679Z,20.30
2017-08-24T09:11:32.005Z,27.10
2017-08-24T09:14:00.332Z,26.03
2017-08-24T09:16:28.669Z,18.53
2017-08-24T09:18:56.998Z,25.13
2017-08-24T09:21:25.326Z,23.87
2017-08-24T09:23:53.645Z,29.53
2017-08-24T09:26:21.953Z,21.50
2017-08-24T09:28:50.276Z,22.20
2017-08-24T09:31:18.598Z,21.30
2017-08-24T09:33:46.925Z,19.60
2017-08-24T09:36:15.242Z,17.70
2017-08-24T09:38:43.583Z,18.50
2017-08-24T09:41:11.905Z,19.77
2017-08-24T09:43:40.238Z,18.77
2017-08-24T09:46:08.551Z,19.53
2017-08-24T09:48:36.893Z,22.43
2017-08-24T09:51:05.211Z,26.03
2017-08-24T09:53:33.538Z,22.20
2017-08-24T09:56:01.851Z,23.63
2017-08-24T09:58:30.181Z,21.33
2017-08-24T10:00:58.490Z,23.60
2017-08-24T10:03:26.878Z,27.30
2017-08-24T10:05:55.198Z,22.67
2017-08-24T10:08:23.513Z,23.67
2017-08-24T10:10:51.840Z,24.03
2017-08-24T10:13:20.150Z,33.73
2017-08-24T10:15:48.474Z,31.90
2017-08-24T10:18:16.798Z,30.23
2017-08-24T10:20:45.138Z,30.77
2017-08-24T10:23:13.454Z,39.40
2017-08-24T10:25:41.787Z,38.90
2017-08-24T10:28:10.110Z,37.60
2017-08-24T10:30:38.467Z,46.27
2017-08-24T10:33:06.766Z,46.70
2017-08-24T10:35:35.094Z,52.27
2017-08-24T10:38:03.412Z,57.60
2017-08-24T10:40:31.742Z,68.10
2017-08-24T10:43:00.068Z,58.97
2017-08-24T10:45:28.398Z,63.07
2017-08-24T10:47:56.742Z,78.23
2017-08-24T10:50:25.073Z,65.47
2017-08-24T10:52:53.394Z,55.27
2017-08-24T10:55:21.723Z,68.30
2017-08-24T10:57:50.054Z,62.33
2017-08-24T11:00:18.394Z,74.00
2017-08-24T11:02:46.709Z,55.47
2017-08-24T11:05:15.031Z,53.20
2017-08-24T11:07:43.349Z,61.60
2017-08-24T11:10:11.686Z,58.27
2017-08-24T11:12:40.004Z,48.80
2017-08-24T11:15:08.314Z,54.60
2017-08-24T11:17:36.634Z,50.20
2017-08-24T11:20:04.947Z,54.30
2017-08-24T11:22:33.258Z,46.80
2017-08-24T11:25:01.582Z,48.30
2017-08-24T11:27:29.898Z,44.80
2017-08-24T11:29:58.219Z,49.07
2017-08-24T11:32:26.546Z,52.83
2017-08-24T11:34:54.857Z,47.73
2017-08-24T11:37:23.178Z,48.53
2017-08-24T11:39:51.486Z,47.63
2017-08-24T11:42:19.807Z,51.80
2017-08-24T11:44:48.130Z,51.70
2017-08-24T11:47:16.458Z,52.40
2017-08-24T11:49:44.768Z,53.80
2017-08-24T11:52:13.081Z,52.53
2017-08-24T11:54:41.389Z,53.43
2017-08-24T11:57:09.722Z,54.97
2017-08-24T11:59:38.026Z,52.73
2017-08-24T12:02:06.358Z,45.47
2017-08-24T12:04:34.667Z,50.87
2017-08-24T12:07:02.991Z,43.60
2017-08-24T12:09:31.308Z,38.90
2017-08-24T12:11:59.629Z,34.17
2017-08-24T12:14:27.942Z,36.03
2017-08-24T12:16:56.274Z,32.60
2017-08-24T12:19:24.588Z,30.80
2017-08-24T12:21:52.905Z,27.97
2017-08-24T12:24:21.227Z,28.23
2017-08-24T12:26:49.539Z,26.70
2017-08-24T12:29:17.853Z,28.07
2017-08-24T12:31:46.158Z,24.80
2017-08-24T12:34:14.474Z,27.40
2017-08-24T12:36:42.842Z,32.17
2017-08-24T12:39:11.158Z,30.27
2017-08-24T12:41:39.465Z,36.33
2017-08-24T12:44:07.783Z,34.00
2017-08-24T12:46:36.087Z,31.50
2017-08-24T12:49:04.407Z,30.63
2017-08-24T12:51:32.718Z,31.20
2017-08-24T12:54:01.030Z,31.10
2017-08-24T12:56:29.334Z,30.93
2017-08-24T12:58:58.655Z,33.50
2017-08-24T13:01:26.968Z,33.20
2017-08-24T13:03:55.287Z,32.83
2017-08-24T13:06:23.593Z,30.40
2017-08-24T13:08:51.933Z,31.27
2017-08-24T13:11:20.251Z,29.90
2017-08-24T13:13:48.590Z,30.97
2017-08-24T13:16:16.936Z,29.03
2017-08-24T13:18:45.258Z,24.30
2017-08-24T13:21:13.577Z,25.23
2017-08-24T13:23:41.919Z,19.17
2017-08-24T13:26:10.233Z,18.07
2017-08-24T13:28:38.574Z,21.53
2017-08-24T13:31:06.890Z,19.80
2017-08-24T13:33:35.207Z,17.97
2017-08-24T13:36:03.534Z,23.93
2017-08-24T13:38:32.087Z,15.87
2017-08-24T13:41:00.663Z,19.03
2017-08-24T13:43:28.977Z,20.93
2017-08-24T13:45:57.294Z,20.03
2017-08-24T13:48:25.610Z,23.83
2017-08-24T13:50:53.927Z,19.40
2017-08-24T13:53:22.241Z,24.53
2017-08-24T13:55:50.578Z,29.13
2017-08-24T13:58:18.897Z,25.97
2017-08-24T14:00:47.231Z,23.60
2017-08-24T14:03:15.538Z,20.10
2017-08-24T14:05:43.859Z,22.23
2017-08-24T14:08:12.167Z,27.80
2017-08-24T14:10:40.488Z,21.83
2017-08-24T14:13:08.822Z,21.73
2017-08-24T14:15:37.143Z,20.07
2017-08-24T14:18:05.485Z,20.63
2017-08-24T14:20:33.802Z,22.30
2017-08-24T14:23:02.110Z,19.53
2017-08-24T14:25:30.426Z,22.30
2017-08-24T14:27:58.734Z,20.47
2017-08-24T14:30:27.058Z,34.10
2017-08-24T14:32:55.380Z,19.40
2017-08-24T14:35:23.711Z,22.70
2017-08-24T14:37:52.029Z,20.10
2017-08-24T14:40:20.337Z,23.13
2017-08-24T14:42:48.650Z,21.73
2017-08-24T14:45:16.981Z,20.80
2017-08-24T14:47:45.301Z,16.40
2017-08-24T14:50:13.607Z,14.97
2017-08-24T14:52:41.925Z,16.83
2017-08-24T14:55:10.234Z,14.03
2017-08-24T14:57:38.557Z,13.67
2017-08-24T15:00:06.874Z,17.70
2017-08-24T15:02:35.197Z,25.37
2017-08-24T15:05:03.506Z,17.23
2017-08-24T15:07:31.826Z,15.13
2017-08-24T15:10:00.142Z,20.03
2017-08-24T15:12:28.458Z,15.83
2017-08-24T15:14:56.780Z,14.23
2017-08-24T15:17:25.097Z,12.80
2017-08-24T15:19:53.418Z,13.17
2017-08-24T15:22:21.841Z,13.50
2017-08-24T15:24:50.154Z,20.10
2017-08-24T15:27:18.478Z,14.20
2017-08-24T15:29:46.789Z,14.10
2017-08-24T15:32:15.105Z,15.30
2017-08-24T15:34:43.419Z,14.20
2017-08-24T15:37:11.748Z,15.07
2017-08-24T15:39:40.053Z,18.03
2017-08-24T15:42:08.382Z,18.97
2017-08-24T15:44:36.705Z,12.97
2017-08-24T15:47:05.039Z,15.37
2017-08-24T15:49:33.346Z,14.37
2017-08-24T15:52:01.653Z,13.47
2017-08-24T15:54:29.973Z,12.03
2017-08-24T15:56:58.389Z,20.57
2017-08-24T15:59:26.706Z,11.73
2017-08-24T16:01:55.018Z,13.97
2017-08-24T16:04:23.338Z,12.70
2017-08-24T16:06:51.647Z,22.27
2017-08-24T16:09:19.965Z,18.70
2017-08-24T16:11:48.270Z,12.90
2017-08-24T16:14:16.607Z,14.23
2017-08-24T16:16:44.938Z,23.33
2017-08-24T16:19:13.286Z,16.73
2017-08-24T16:21:41.597Z,15.97
2017-08-24T16:24:09.914Z,15.13
2017-08-24T16:26:38.221Z,19.70
2017-08-24T16:29:06.535Z,13.90
2017-08-24T16:31:34.847Z,21.20
2017-08-24T16:34:03.170Z,26.87
2017-08-24T16:36:31.476Z,22.33
2017-08-24T16:38:59.801Z,21.17
2017-08-24T16:41:28.126Z,22.63
2017-08-24T16:43:56.445Z,19.67
2017-08-24T16:46:24.753Z,22.43
2017-08-24T16:48:53.081Z,22.90
2017-08-24T16:51:21.397Z,27.03
2017-08-24T16:53:49.734Z,22.90
2017-08-24T16:56:18.049Z,21.30
2017-08-24T16:58:46.349Z,27.23
2017-08-24T17:01:14.666Z,21.70
2017-08-24T17:03:42.971Z,23.93
2017-08-24T17:06:11.287Z,20.50
2017-08-24T17:08:39.634Z,25.00
2017-08-24T17:11:08.249Z,23.00
2017-08-24T17:13:36.759Z,19.13
2017-08-24T17:16:05.089Z,24.37
2017-08-24T17:18:33.394Z,22.70
2017-08-24T17:21:01.718Z,25.47
2017-08-24T17:23:30.034Z,22.77
2017-08-24T17:25:58.365Z,18.63
2017-08-24T17:28:26.685Z,21.33
2017-08-24T17:30:55.008Z,20.97
2017-08-24T17:33:23.326Z,17.63
2017-08-24T17:35:51.850Z,17.83
2017-08-24T17:38:20.166Z,18.57
2017-08-24T17:40:48.490Z,19.10
2017-08-24T17:43:16.868Z,24.60
2017-08-24T17:45:45.199Z,21.20
2017-08-24T17:48:13.505Z,20.50
2017-08-24T17:50:41.860Z,18.40
2017-08-24T17:53:10.188Z,17.80
2017-08-24T17:55:37.804Z,23.67
2017-08-24T17:58:06.211Z,18.57
2017-08-24T18:00:34.547Z,18.50
2017-08-24T18:03:02.861Z,16.20
2017-08-24T18:05:31.202Z,23.77
2017-08-24T18:07:59.518Z,15.97
2017-08-24T18:10:27.829Z,20.53
2017-08-24T18:12:56.138Z,19.80
2017-08-24T18:15:24.450Z,17.73
2017-08-24T18:17:53.574Z,19.70
2017-08-24T18:20:21.883Z,21.57
2017-08-24T18:22:50.199Z,22.80
2017-08-24T18:25:18.504Z,20.97
2017-08-24T18:27:46.821Z,18.47
2017-08-24T18:30:15.129Z,16.30
2017-08-24T18:32:43.455Z,20.53
2017-08-24T18:35:11.770Z,26.80
2017-08-24T18:37:40.111Z,20.77
2017-08-24T18:40:08.422Z,21.90
2017-08-24T18:42:36.775Z,24.53
2017-08-24T18:45:05.167Z,23.30
2017-08-24T18:47:34.058Z,22.50
2017-08-24T18:50:02.597Z,22.47
2017-08-24T18:52:31.366Z,25.43
2017-08-24T18:55:00.790Z,26.17
2017-08-24T18:57:29.335Z,19.97
2017-08-24T18:59:57.661Z,25.03
2017-08-24T19:02:26.029Z,23.50
2017-08-24T19:04:54.358Z,28.07
2017-08-24T19:07:22.679Z,31.13
2017-08-24T19:09:51.010Z,29.07
2017-08-24T19:12:19.365Z,28.33
2017-08-24T19:14:47.698Z,28.30
2017-08-24T19:17:16.036Z,32.40
2017-08-24T19:19:44.373Z,30.90
2017-08-24T19:22:12.694Z,29.00
2017-08-24T19:24:41.011Z,26.70
2017-08-24T19:27:09.328Z,22.93
2017-08-24T19:29:37.646Z,27.03
2017-08-24T19:32:05.956Z,28.27
2017-08-24T19:34:34.337Z,26.60
2017-08-24T19:37:02.658Z,23.87
2017-08-24T19:39:30.984Z,29.53
2017-08-24T19:41:59.291Z,26.83
2017-08-24T19:44:27.690Z,31.90
2017-08-24T19:46:55.997Z,24.67
2017-08-24T19:49:24.323Z,24.67
2017-08-24T19:51:52.642Z,27.20
2017-08-24T19:54:20.965Z,26.43
2017-08-24T19:56:49.274Z,32.47
2017-08-24T19:59:17.618Z,29.90
2017-08-24T20:01:45.932Z,33.77
2017-08-24T20:04:14.253Z,33.67
2017-08-24T20:06:42.564Z,39.50
2017-08-24T20:09:10.881Z,36.00
2017-08-24T20:11:39.194Z,30.93
2017-08-24T20:14:07.504Z,34.43
2017-08-24T20:16:35.814Z,35.57
2017-08-24T20:19:04.148Z,34.77
2017-08-24T20:21:32.468Z,32.60
2017-08-24T20:24:00.822Z,33.10
2017-08-24T20:26:29.134Z,33.77
2017-08-24T20:28:57.454Z,35.17
2017-08-24T20:31:25.786Z,39.93
2017-08-24T20:33:54.101Z,36.83
2017-08-24T20:36:22.422Z,47.57
2017-08-24T20:38:50.746Z,43.60
2017-08-24T20:41:19.067Z,46.47
2017-08-24T20:43:47.385Z,45.43
2017-08-24T20:46:15.703Z,39.37
2017-08-24T20:48:44.017Z,43.77
2017-08-24T20:51:12.335Z,42.77
2017-08-24T20:53:40.650Z,46.90
2017-08-24T20:56:08.995Z,41.07
2017-08-24T20:58:37.301Z,43.47
2017-08-24T21:01:05.622Z,45.63
2017-08-24T21:03:33.981Z,44.97
2017-08-24T21:06:02.312Z,47.93
2017-08-24T21:08:30.625Z,42.80
2017-08-24T21:10:58.957Z,50.93
2017-08-24T21:13:27.295Z,51.83
2017-08-24T21:15:55.619Z,54.03
2017-08-24T21:18:23.939Z,46.70
2017-08-24T21:20:52.263Z,46.90
2017-08-24T21:23:20.578Z,51.03
2017-08-24T21:25:48.898Z,53.07
2017-08-24T21:28:17.214Z,51.80
2017-08-24T21:30:45.565Z,48.40
2017-08-24T21:33:13.879Z,51.07
2017-08-24T21:35:42.212Z,53.30
2017-08-24T21:38:10.558Z,48.27
2017-08-24T21:40:38.878Z,54.73
2017-08-24T21:43:08.038Z,47.10
2017-08-24T21:45:36.371Z,47.97
2017-08-24T21:48:04.690Z,44.83
2017-08-24T21:50:33.006Z,52.87
2017-08-24T21:53:01.330Z,52.37
2017-08-24T21:55:29.666Z,55.30
2017-08-24T21:57:58.004Z,49.47
2017-08-24T22:00:26.317Z,46.33
2017-08-24T22:02:54.638Z,41.03
2017-08-24T22:05:22.949Z,54.83
2017-08-24T22:07:51.266Z,42.10
2017-08-24T22:10:19.572Z,50.97
2017-08-24T22:12:47.889Z,50.70
2017-08-24T22:15:16.210Z,48.30
2017-08-24T22:17:44.541Z,50.57
2017-08-24T22:20:12.854Z,47.43
2017-08-24T22:22:41.188Z,49.37
2017-08-24T22:25:09.517Z,49.07
2017-08-24T22:27:37.829Z,48.00
2017-08-24T22:30:06.139Z,48.23
2017-08-24T22:32:34.465Z,51.57
2017-08-24T22:35:02.780Z,48.73
2017-08-24T22:37:31.097Z,52.77
2017-08-24T22:39:59.402Z,49.63
2017-08-24T22:42:27.751Z,53.03
2017-08-24T22:44:56.062Z,54.13
2017-08-24T22:47:24.373Z,55.90
2017-08-24T22:49:52.690Z,56.87
2017-08-24T22:52:20.993Z,57.00
2017-08-24T22:54:54.723Z,60.70
2017-08-24T22:57:28.599Z,55.03
2017-08-24T23:00:02.259Z,55.17
2017-08-24T23:05:37.422Z,55.83
2017-08-24T23:08:05.728Z,63.50
2017-08-24T23:10:34.042Z,60.43
2017-08-24T23:13:02.356Z,61.10
2017-08-24T23:15:30.673Z,68.90
2017-08-24T23:17:58.992Z,62.67
2017-08-24T23:20:27.320Z,58.87
2017-08-24T23:22:55.634Z,57.90
2017-08-24T23:25:23.950Z,72.87
2017-08-24T23:27:52.272Z,56.87
2017-08-24T23:30:20.605Z,64.87
2017-08-24T23:32:48.921Z,59.83
2017-08-24T23:35:17.251Z,59.23
2017-08-24T23:37:45.573Z,60.97
2017-08-24T23:40:13.903Z,54.60
2017-08-24T23:42:42.202Z,55.83
2017-08-24T23:45:10.527Z,54.60
2017-08-24T23:47:38.847Z,54.27
2017-08-24T23:50:07.161Z,52.37
2017-08-24T23:52:35.478Z,55.87
2017-08-24T23:55:03.794Z,63.30
2017-08-24T23:57:32.106Z,56.67
